Friends Good Will — WDC4005 — position and weather

sailwx.info

Track history (hours):
 
Tides and Currents Weather Stations Pressure Air Temp Water Temp Dewpoint Dewpoint Depression Visibility Wind Speed Wind Dir Waves Ship Positions

Friends Good Will

Designed and built by Scarano Boatbuilding, Inc. of Albany, New York. Rigged and sailed by Michigan Maritime Museum volunteers.

Ship's website: http://www.michiganmaritimemuseum.org/friendsgoodwill/

More information available from US FCC via Universal Licensing System and Coast Guard Vessel Documentation Center.

Last reported at 2013-Sep-23 01:22 UTC. Time now 2014-Jul-22 18:56 UTC.
Position N 45°18' W 085°40'.
Warning: this ship's position is months out of date.

Length 17 m.

Type: Ship. MMSI: 367017720.

Date/timePositionNaut miles runAvg speedWind from/ knotsBaromVisibWave heightAir tempDewpointWater temp
2013-Sep-23 01:22N 45°18' W 085°40'5 6.2
2013-Sep-23 00:32N 45°22' W 085°36'6 5.9
2013-Sep-22 23:33N 45°27' W 085°31'6 6.1
2013-Sep-22 22:33N 45°32' W 085°26'6 6.3
2013-Sep-22 21:33N 45°37' W 085°20'6 6.1
2013-Sep-22 20:32N 45°41' W 085°14'6 6.3
2013-Sep-22 19:31N 45°46' W 085°09'5 4.8
2013-Sep-22 18:25N 45°50' W 085°03'6 6.0
2013-Sep-22 17:27N 45°49' W 084°55'  
2013-Sep-19 16:12N 45°41' W 084°24'4 2.2
2013-Sep-19 14:33N 45°39' W 084°28'0 0.0
2013-Sep-19 13:21N 45°39' W 084°28'2 0.4
2013-Sep-19 07:24N 45°41' W 084°26'5 5.3
2013-Sep-19 06:33N 45°41' W 084°20'  
Track history (hours):
 
Tides and Currents Weather Stations Pressure Air Temp Water Temp Dewpoint Dewpoint Depression Visibility Wind Speed Wind Dir Waves Ship Positions

Friends Good Will

Designed and built by Scarano Boatbuilding, Inc. of Albany, New York. Rigged and sailed by Michigan Maritime Museum volunteers.

Ship's website: http://www.michiganmaritimemuseum.org/friendsgoodwill/

More information available from US FCC via Universal Licensing System and Coast Guard Vessel Documentation Center.

Last reported at 2013-Sep-23 01:22 UTC. Time now 2014-Jul-22 18:56 UTC.
Position N 45°18' W 085°40'.
Warning: this ship's position is months out of date.

Length 17 m.

Type: Ship. MMSI: 367017720.

Date/timePositionNaut miles runAvg speedWind from/ knotsBaromVisibWave heightAir tempDewpointWater temp
2013-Sep-23 01:22N 45°18' W 085°40'5 6.2
2013-Sep-23 00:32N 45°22' W 085°36'6 5.9
2013-Sep-22 23:33N 45°27' W 085°31'6 6.1
2013-Sep-22 22:33N 45°32' W 085°26'6 6.3
2013-Sep-22 21:33N 45°37' W 085°20'6 6.1
2013-Sep-22 20:32N 45°41' W 085°14'6 6.3
2013-Sep-22 19:31N 45°46' W 085°09'5 4.8
2013-Sep-22 18:25N 45°50' W 085°03'6 6.0
2013-Sep-22 17:27N 45°49' W 084°55'  
2013-Sep-19 16:12N 45°41' W 084°24'4 2.2
2013-Sep-19 14:33N 45°39' W 084°28'0 0.0
2013-Sep-19 13:21N 45°39' W 084°28'2 0.4
2013-Sep-19 07:24N 45°41' W 084°26'5 5.3
2013-Sep-19 06:33N 45°41' W 084°20'  

Dump ship's entire track history